sensor_id;sensor_type;location;lat;lon;timestamp;P1;durP1;ratioP1;P2;durP2;ratioP2
18883;SDS011;9574;47.282;9.640;2022-10-16T00:00:35;4.23;;;1.23;;
18883;SDS011;9574;47.282;9.640;2022-10-16T00:03:03;1.33;;;1.23;;
18883;SDS011;9574;47.282;9.640;2022-10-16T00:05:31;1.97;;;1.40;;
18883;SDS011;9574;47.282;9.640;2022-10-16T00:07:58;2.03;;;1.37;;
18883;SDS011;9574;47.282;9.640;2022-10-16T00:10:25;8.83;;;1.60;;
18883;SDS011;9574;47.282;9.640;2022-10-16T00:12:53;3.37;;;1.57;;
18883;SDS011;9574;47.282;9.640;2022-10-16T00:15:20;1.70;;;1.57;;
18883;SDS011;9574;47.282;9.640;2022-10-16T00:17:47;1.30;;;1.20;;
18883;SDS011;9574;47.282;9.640;2022-10-16T00:20:14;4.33;;;1.40;;
18883;SDS011;9574;47.282;9.640;2022-10-16T00:22:41;5.13;;;1.47;;
18883;SDS011;9574;47.282;9.640;2022-10-16T00:25:08;7.00;;;1.70;;
18883;SDS011;9574;47.282;9.640;2022-10-16T00:27:35;2.80;;;1.50;;
18883;SDS011;9574;47.282;9.640;2022-10-16T00:30:04;1.63;;;1.40;;
18883;SDS011;9574;47.282;9.640;2022-10-16T00:32:33;1.57;;;1.10;;
18883;SDS011;9574;47.282;9.640;2022-10-16T00:35:00;2.00;;;1.10;;
18883;SDS011;9574;47.282;9.640;2022-10-16T00:37:28;1.30;;;1.20;;
18883;SDS011;9574;47.282;9.640;2022-10-16T00:39:55;1.23;;;1.03;;
18883;SDS011;9574;47.282;9.640;2022-10-16T00:42:22;1.80;;;1.20;;
18883;SDS011;9574;47.282;9.640;2022-10-16T00:44:50;1.20;;;1.10;;
18883;SDS011;9574;47.282;9.640;2022-10-16T00:47:21;1.93;;;1.10;;
18883;SDS011;9574;47.282;9.640;2022-10-16T00:49:53;4.17;;;1.30;;
18883;SDS011;9574;47.282;9.640;2022-10-16T00:52:26;1.77;;;1.17;;
18883;SDS011;9574;47.282;9.640;2022-10-16T00:54:53;2.77;;;1.50;;
18883;SDS011;9574;47.282;9.640;2022-10-16T00:57:21;1.40;;;1.23;;
18883;SDS011;9574;47.282;9.640;2022-10-16T00:59:49;1.20;;;0.80;;
18883;SDS011;9574;47.282;9.640;2022-10-16T01:02:16;2.93;;;1.00;;
18883;SDS011;9574;47.282;9.640;2022-10-16T01:04:46;1.37;;;1.27;;
18883;SDS011;9574;47.282;9.640;2022-10-16T01:07:16;1.53;;;1.20;;
18883;SDS011;9574;47.282;9.640;2022-10-16T01:09:53;4.17;;;0.90;;
18883;SDS011;9574;47.282;9.640;2022-10-16T01:12:30;2.20;;;1.00;;
18883;SDS011;9574;47.282;9.640;2022-10-16T01:15:06;8.13;;;1.27;;
18883;SDS011;9574;47.282;9.640;2022-10-16T01:17:38;1.90;;;1.03;;
18883;SDS011;9574;47.282;9.640;2022-10-16T01:20:13;1.33;;;0.93;;
18883;SDS011;9574;47.282;9.640;2022-10-16T01:23:03;0.93;;;0.90;;
18883;SDS011;9574;47.282;9.640;2022-10-16T01:25:39;3.63;;;1.00;;
18883;SDS011;9574;47.282;9.640;2022-10-16T01:28:20;1.27;;;0.90;;
18883;SDS011;9574;47.282;9.640;2022-10-16T01:30:52;1.83;;;1.27;;
18883;SDS011;9574;47.282;9.640;2022-10-16T01:33:24;1.20;;;1.00;;
18883;SDS011;9574;47.282;9.640;2022-10-16T01:35:58;1.37;;;1.00;;
18883;SDS011;9574;47.282;9.640;2022-10-16T01:38:29;1.80;;;1.03;;
18883;SDS011;9574;47.282;9.640;2022-10-16T01:41:00;0.90;;;0.80;;
18883;SDS011;9574;47.282;9.640;2022-10-16T01:43:35;1.77;;;0.90;;
18883;SDS011;9574;47.282;9.640;2022-10-16T01:46:05;2.97;;;0.93;;
18883;SDS011;9574;47.282;9.640;2022-10-16T01:48:34;2.83;;;0.90;;
18883;SDS011;9574;47.282;9.640;2022-10-16T01:51:03;1.27;;;1.03;;
18883;SDS011;9574;47.282;9.640;2022-10-16T01:53:32;1.90;;;0.90;;
18883;SDS011;9574;47.282;9.640;2022-10-16T01:55:59;5.37;;;1.00;;
18883;SDS011;9574;47.282;9.640;2022-10-16T01:58:29;3.10;;;1.00;;
18883;SDS011;9574;47.282;9.640;2022-10-16T02:01:03;4.73;;;1.30;;
18883;SDS011;9574;47.282;9.640;2022-10-16T02:03:33;1.10;;;1.00;;
18883;SDS011;9574;47.282;9.640;2022-10-16T02:06:03;1.27;;;0.83;;
18883;SDS011;9574;47.282;9.640;2022-10-16T02:08:30;4.10;;;0.80;;
18883;SDS011;9574;47.282;9.640;2022-10-16T02:10:58;1.93;;;0.90;;
18883;SDS011;9574;47.282;9.640;2022-10-16T02:13:28;2.87;;;1.10;;
18883;SDS011;9574;47.282;9.640;2022-10-16T02:15:59;3.43;;;0.90;;
18883;SDS011;9574;47.282;9.640;2022-10-16T02:18:27;1.03;;;0.93;;
18883;SDS011;9574;47.282;9.640;2022-10-16T02:20:57;1.90;;;0.70;;
18883;SDS011;9574;47.282;9.640;2022-10-16T02:23:29;3.27;;;1.13;;
18883;SDS011;9574;47.282;9.640;2022-10-16T02:26:04;1.03;;;0.80;;
18883;SDS011;9574;47.282;9.640;2022-10-16T02:28:36;2.87;;;0.90;;
18883;SDS011;9574;47.282;9.640;2022-10-16T02:31:08;1.73;;;0.90;;
18883;SDS011;9574;47.282;9.640;2022-10-16T02:33:39;2.47;;;1.00;;
18883;SDS011;9574;47.282;9.640;2022-10-16T02:36:08;3.70;;;0.80;;
18883;SDS011;9574;47.282;9.640;2022-10-16T02:38:36;1.37;;;0.97;;
18883;SDS011;9574;47.282;9.640;2022-10-16T02:41:05;5.13;;;1.53;;
18883;SDS011;9574;47.282;9.640;2022-10-16T02:43:33;0.80;;;0.70;;
18883;SDS011;9574;47.282;9.640;2022-10-16T02:46:00;0.83;;;0.80;;
18883;SDS011;9574;47.282;9.640;2022-10-16T02:48:27;1.50;;;1.00;;
18883;SDS011;9574;47.282;9.640;2022-10-16T02:50:56;1.23;;;0.83;;
18883;SDS011;9574;47.282;9.640;2022-10-16T02:53:23;2.43;;;0.93;;
18883;SDS011;9574;47.282;9.640;2022-10-16T02:55:50;2.60;;;0.80;;
18883;SDS011;9574;47.282;9.640;2022-10-16T02:58:16;1.07;;;0.97;;
18883;SDS011;9574;47.282;9.640;2022-10-16T03:00:43;4.43;;;1.00;;
18883;SDS011;9574;47.282;9.640;2022-10-16T03:03:11;1.30;;;1.20;;
18883;SDS011;9574;47.282;9.640;2022-10-16T03:05:37;4.13;;;0.90;;
18883;SDS011;9574;47.282;9.640;2022-10-16T03:08:06;1.60;;;1.00;;
18883;SDS011;9574;47.282;9.640;2022-10-16T03:10:33;4.13;;;0.80;;
18883;SDS011;9574;47.282;9.640;2022-10-16T03:13:00;0.77;;;0.67;;
18883;SDS011;9574;47.282;9.640;2022-10-16T03:15:27;0.70;;;0.70;;
18883;SDS011;9574;47.282;9.640;2022-10-16T03:17:54;1.70;;;0.90;;
18883;SDS011;9574;47.282;9.640;2022-10-16T03:20:21;0.80;;;0.80;;
18883;SDS011;9574;47.282;9.640;2022-10-16T03:22:48;3.90;;;1.20;;
18883;SDS011;9574;47.282;9.640;2022-10-16T03:25:16;1.07;;;0.80;;
18883;SDS011;9574;47.282;9.640;2022-10-16T03:27:43;2.27;;;0.83;;
18883;SDS011;9574;47.282;9.640;2022-10-16T03:30:11;1.00;;;0.90;;
18883;SDS011;9574;47.282;9.640;2022-10-16T03:32:38;3.17;;;1.10;;
18883;SDS011;9574;47.282;9.640;2022-10-16T03:35:05;1.23;;;0.90;;
18883;SDS011;9574;47.282;9.640;2022-10-16T03:37:33;1.53;;;0.90;;
18883;SDS011;9574;47.282;9.640;2022-10-16T03:40:00;2.63;;;0.90;;
18883;SDS011;9574;47.282;9.640;2022-10-16T03:42:28;1.23;;;0.90;;
18883;SDS011;9574;47.282;9.640;2022-10-16T03:44:55;3.17;;;1.40;;
18883;SDS011;9574;47.282;9.640;2022-10-16T03:47:22;0.90;;;0.90;;
18883;SDS011;9574;47.282;9.640;2022-10-16T03:49:49;4.40;;;1.00;;
18883;SDS011;9574;47.282;9.640;2022-10-16T03:52:16;2.57;;;0.80;;
18883;SDS011;9574;47.282;9.640;2022-10-16T03:54:43;1.93;;;0.77;;
18883;SDS011;9574;47.282;9.640;2022-10-16T03:57:10;1.03;;;0.80;;
18883;SDS011;9574;47.282;9.640;2022-10-16T03:59:38;0.87;;;0.87;;
18883;SDS011;9574;47.282;9.640;2022-10-16T04:02:05;1.00;;;0.83;;
18883;SDS011;9574;47.282;9.640;2022-10-16T04:04:32;1.90;;;1.10;;
18883;SDS011;9574;47.282;9.640;2022-10-16T04:06:59;3.20;;;1.13;;
18883;SDS011;9574;47.282;9.640;2022-10-16T04:09:26;1.37;;;1.00;;
18883;SDS011;9574;47.282;9.640;2022-10-16T04:11:53;1.47;;;1.33;;
18883;SDS011;9574;47.282;9.640;2022-10-16T04:14:20;1.53;;;0.93;;
18883;SDS011;9574;47.282;9.640;2022-10-16T04:16:48;1.43;;;0.80;;
18883;SDS011;9574;47.282;9.640;2022-10-16T04:19:15;3.37;;;0.90;;
18883;SDS011;9574;47.282;9.640;2022-10-16T04:21:42;1.27;;;1.10;;
18883;SDS011;9574;47.282;9.640;2022-10-16T04:24:09;5.93;;;1.90;;
18883;SDS011;9574;47.282;9.640;2022-10-16T04:26:36;6.00;;;1.60;;
18883;SDS011;9574;47.282;9.640;2022-10-16T04:29:03;4.60;;;1.30;;
18883;SDS011;9574;47.282;9.640;2022-10-16T04:31:31;5.43;;;1.80;;
18883;SDS011;9574;47.282;9.640;2022-10-16T04:33:59;3.53;;;1.77;;
18883;SDS011;9574;47.282;9.640;2022-10-16T04:36:26;6.57;;;1.67;;
18883;SDS011;9574;47.282;9.640;2022-10-16T04:38:53;1.80;;;1.40;;
18883;SDS011;9574;47.282;9.640;2022-10-16T04:41:20;3.50;;;1.47;;
18883;SDS011;9574;47.282;9.640;2022-10-16T04:43:47;1.47;;;1.13;;
18883;SDS011;9574;47.282;9.640;2022-10-16T04:46:14;3.83;;;1.40;;
18883;SDS011;9574;47.282;9.640;2022-10-16T04:48:41;2.60;;;1.60;;
18883;SDS011;9574;47.282;9.640;2022-10-16T04:51:09;5.80;;;1.30;;
18883;SDS011;9574;47.282;9.640;2022-10-16T04:53:36;1.00;;;0.90;;
18883;SDS011;9574;47.282;9.640;2022-10-16T04:56:03;5.20;;;1.03;;
18883;SDS011;9574;47.282;9.640;2022-10-16T04:58:30;1.00;;;1.00;;
18883;SDS011;9574;47.282;9.640;2022-10-16T05:00:58;1.17;;;1.07;;
18883;SDS011;9574;47.282;9.640;2022-10-16T05:03:25;1.17;;;1.07;;
18883;SDS011;9574;47.282;9.640;2022-10-16T05:05:52;7.30;;;1.20;;
18883;SDS011;9574;47.282;9.640;2022-10-16T05:08:20;1.20;;;1.10;;
18883;SDS011;9574;47.282;9.640;2022-10-16T05:10:47;1.30;;;1.00;;
18883;SDS011;9574;47.282;9.640;2022-10-16T05:13:14;1.40;;;1.07;;
18883;SDS011;9574;47.282;9.640;2022-10-16T05:15:41;6.40;;;1.40;;
18883;SDS011;9574;47.282;9.640;2022-10-16T05:18:08;1.53;;;1.03;;
18883;SDS011;9574;47.282;9.640;2022-10-16T05:20:35;8.03;;;1.27;;
18883;SDS011;9574;47.282;9.640;2022-10-16T05:23:02;4.93;;;2.30;;
18883;SDS011;9574;47.282;9.640;2022-10-16T05:25:30;2.73;;;1.20;;
18883;SDS011;9574;47.282;9.640;2022-10-16T05:27:57;1.17;;;1.07;;
18883;SDS011;9574;47.282;9.640;2022-10-16T05:30:24;1.33;;;0.80;;
18883;SDS011;9574;47.282;9.640;2022-10-16T05:32:51;4.13;;;1.17;;
18883;SDS011;9574;47.282;9.640;2022-10-16T05:35:18;2.43;;;1.53;;
18883;SDS011;9574;47.282;9.640;2022-10-16T05:37:46;2.00;;;1.70;;
18883;SDS011;9574;47.282;9.640;2022-10-16T05:40:13;2.20;;;1.10;;
18883;SDS011;9574;47.282;9.640;2022-10-16T05:42:42;1.67;;;1.50;;
18883;SDS011;9574;47.282;9.640;2022-10-16T05:45:10;2.53;;;1.00;;
18883;SDS011;9574;47.282;9.640;2022-10-16T05:47:37;2.00;;;0.93;;
18883;SDS011;9574;47.282;9.640;2022-10-16T05:50:05;3.13;;;1.20;;
18883;SDS011;9574;47.282;9.640;2022-10-16T05:52:32;1.40;;;1.03;;
18883;SDS011;9574;47.282;9.640;2022-10-16T05:54:59;2.20;;;1.00;;
18883;SDS011;9574;47.282;9.640;2022-10-16T05:57:26;2.77;;;1.33;;
18883;SDS011;9574;47.282;9.640;2022-10-16T05:59:54;3.70;;;0.90;;
18883;SDS011;9574;47.282;9.640;2022-10-16T06:02:21;3.33;;;0.90;;
18883;SDS011;9574;47.282;9.640;2022-10-16T06:04:48;2.77;;;1.23;;
18883;SDS011;9574;47.282;9.640;2022-10-16T06:07:15;2.57;;;1.80;;
18883;SDS011;9574;47.282;9.640;2022-10-16T06:09:42;4.37;;;2.50;;
18883;SDS011;9574;47.282;9.640;2022-10-16T06:12:09;4.60;;;2.17;;
18883;SDS011;9574;47.282;9.640;2022-10-16T06:14:36;2.40;;;1.97;;
18883;SDS011;9574;47.282;9.640;2022-10-16T06:17:05;2.43;;;1.80;;
18883;SDS011;9574;47.282;9.640;2022-10-16T06:19:31;2.50;;;1.77;;
18883;SDS011;9574;47.282;9.640;2022-10-16T06:21:58;3.20;;;1.87;;
18883;SDS011;9574;47.282;9.640;2022-10-16T06:24:27;8.10;;;1.50;;
18883;SDS011;9574;47.282;9.640;2022-10-16T06:26:54;1.30;;;1.20;;
18883;SDS011;9574;47.282;9.640;2022-10-16T06:29:21;2.83;;;1.20;;
18883;SDS011;9574;47.282;9.640;2022-10-16T06:31:48;2.17;;;1.67;;
18883;SDS011;9574;47.282;9.640;2022-10-16T06:34:17;5.77;;;1.20;;
18883;SDS011;9574;47.282;9.640;2022-10-16T06:36:44;2.80;;;1.60;;
18883;SDS011;9574;47.282;9.640;2022-10-16T06:39:11;4.63;;;2.80;;
18883;SDS011;9574;47.282;9.640;2022-10-16T06:41:38;2.20;;;2.00;;
18883;SDS011;9574;47.282;9.640;2022-10-16T06:44:05;2.40;;;2.17;;
18883;SDS011;9574;47.282;9.640;2022-10-16T06:46:34;2.83;;;2.37;;
18883;SDS011;9574;47.282;9.640;2022-10-16T06:49:01;5.20;;;2.00;;
18883;SDS011;9574;47.282;9.640;2022-10-16T06:51:30;5.37;;;1.37;;
18883;SDS011;9574;47.282;9.640;2022-10-16T06:53:59;2.03;;;1.10;;
18883;SDS011;9574;47.282;9.640;2022-10-16T06:56:27;5.90;;;1.27;;
18883;SDS011;9574;47.282;9.640;2022-10-16T06:58:55;2.87;;;0.80;;
18883;SDS011;9574;47.282;9.640;2022-10-16T07:01:22;0.80;;;0.80;;
18883;SDS011;9574;47.282;9.640;2022-10-16T07:03:50;1.07;;;0.97;;
18883;SDS011;9574;47.282;9.640;2022-10-16T07:06:18;1.60;;;1.20;;
18883;SDS011;9574;47.282;9.640;2022-10-16T07:08:47;1.97;;;1.03;;
18883;SDS011;9574;47.282;9.640;2022-10-16T07:11:16;1.30;;;0.90;;
18883;SDS011;9574;47.282;9.640;2022-10-16T07:13:44;0.70;;;0.70;;
18883;SDS011;9574;47.282;9.640;2022-10-16T07:16:14;0.93;;;0.80;;
18883;SDS011;9574;47.282;9.640;2022-10-16T07:18:42;2.17;;;1.50;;
18883;SDS011;9574;47.282;9.640;2022-10-16T07:21:11;2.57;;;1.70;;
18883;SDS011;9574;47.282;9.640;2022-10-16T07:23:40;3.83;;;1.47;;
18883;SDS011;9574;47.282;9.640;2022-10-16T07:26:09;2.13;;;1.10;;
18883;SDS011;9574;47.282;9.640;2022-10-16T07:28:36;5.07;;;1.10;;
18883;SDS011;9574;47.282;9.640;2022-10-16T07:31:05;2.80;;;1.63;;
18883;SDS011;9574;47.282;9.640;2022-10-16T07:33:35;1.33;;;1.10;;
18883;SDS011;9574;47.282;9.640;2022-10-16T07:36:03;1.20;;;0.77;;
18883;SDS011;9574;47.282;9.640;2022-10-16T07:38:30;1.33;;;0.70;;
18883;SDS011;9574;47.282;9.640;2022-10-16T07:40:58;1.07;;;0.80;;
18883;SDS011;9574;47.282;9.640;2022-10-16T07:43:27;1.80;;;1.40;;
18883;SDS011;9574;47.282;9.640;2022-10-16T07:45:55;2.30;;;0.90;;
18883;SDS011;9574;47.282;9.640;2022-10-16T07:48:23;1.00;;;0.80;;
18883;SDS011;9574;47.282;9.640;2022-10-16T07:50:52;1.63;;;0.77;;
18883;SDS011;9574;47.282;9.640;2022-10-16T07:53:23;1.45;;;0.85;;
18883;SDS011;9574;47.282;9.640;2022-10-16T07:55:50;1.20;;;0.73;;
18883;SDS011;9574;47.282;9.640;2022-10-16T07:58:17;1.45;;;0.90;;
18883;SDS011;9574;47.282;9.640;2022-10-16T08:00:45;1.02;;;0.90;;
18883;SDS011;9574;47.282;9.640;2022-10-16T08:03:12;2.92;;;0.60;;
18883;SDS011;9574;47.282;9.640;2022-10-16T08:05:39;2.67;;;0.70;;
18883;SDS011;9574;47.282;9.640;2022-10-16T08:08:10;2.65;;;0.70;;
18883;SDS011;9574;47.282;9.640;2022-10-16T08:10:39;0.93;;;0.77;;
18883;SDS011;9574;47.282;9.640;2022-10-16T08:13:06;1.52;;;0.70;;
18883;SDS011;9574;47.282;9.640;2022-10-16T08:15:33;0.65;;;0.65;;
18883;SDS011;9574;47.282;9.640;2022-10-16T08:18:03;1.00;;;0.90;;
18883;SDS011;9574;47.282;9.640;2022-10-16T08:20:33;2.03;;;0.88;;
18883;SDS011;9574;47.282;9.640;2022-10-16T08:23:00;1.30;;;0.90;;
18883;SDS011;9574;47.282;9.640;2022-10-16T08:25:27;2.20;;;0.80;;
18883;SDS011;9574;47.282;9.640;2022-10-16T08:27:55;1.23;;;0.80;;
18883;SDS011;9574;47.282;9.640;2022-10-16T08:30:22;0.82;;;0.82;;
18883;SDS011;9574;47.282;9.640;2022-10-16T08:32:50;0.68;;;0.65;;
18883;SDS011;9574;47.282;9.640;2022-10-16T08:35:18;2.33;;;0.63;;
18883;SDS011;9574;47.282;9.640;2022-10-16T08:37:46;0.98;;;0.77;;
18883;SDS011;9574;47.282;9.640;2022-10-16T08:40:19;0.57;;;0.57;;
18883;SDS011;9574;47.282;9.640;2022-10-16T08:42:53;1.30;;;0.60;;
18883;SDS011;9574;47.282;9.640;2022-10-16T08:45:34;3.10;;;0.60;;
18883;SDS011;9574;47.282;9.640;2022-10-16T08:48:14;0.60;;;0.60;;
18883;SDS011;9574;47.282;9.640;2022-10-16T08:50:47;2.58;;;0.60;;
18883;SDS011;9574;47.282;9.640;2022-10-16T08:53:18;0.60;;;0.60;;
18883;SDS011;9574;47.282;9.640;2022-10-16T08:55:51;1.45;;;0.98;;
18883;SDS011;9574;47.282;9.640;2022-10-16T08:58:19;10.10;;;0.70;;
18883;SDS011;9574;47.282;9.640;2022-10-16T09:00:48;0.77;;;0.50;;
18883;SDS011;9574;47.282;9.640;2022-10-16T09:03:24;0.70;;;0.55;;
18883;SDS011;9574;47.282;9.640;2022-10-16T09:06:24;1.23;;;0.80;;
18883;SDS011;9574;47.282;9.640;2022-10-16T09:09:01;0.60;;;0.60;;
18883;SDS011;9574;47.282;9.640;2022-10-16T09:11:39;2.72;;;0.70;;
18883;SDS011;9574;47.282;9.640;2022-10-16T09:14:17;1.63;;;0.40;;
18883;SDS011;9574;47.282;9.640;2022-10-16T09:17:11;2.25;;;0.93;;
18883;SDS011;9574;47.282;9.640;2022-10-16T09:19:49;1.48;;;0.60;;
18883;SDS011;9574;47.282;9.640;2022-10-16T09:22:22;4.20;;;0.85;;
18883;SDS011;9574;47.282;9.640;2022-10-16T09:24:54;5.03;;;0.57;;
18883;SDS011;9574;47.282;9.640;2022-10-16T09:27:24;1.27;;;0.70;;
18883;SDS011;9574;47.282;9.640;2022-10-16T09:29:53;2.33;;;0.60;;
18883;SDS011;9574;47.282;9.640;2022-10-16T09:32:21;0.50;;;0.50;;
18883;SDS011;9574;47.282;9.640;2022-10-16T09:34:49;1.15;;;0.70;;
18883;SDS011;9574;47.282;9.640;2022-10-16T09:37:19;1.05;;;0.90;;
18883;SDS011;9574;47.282;9.640;2022-10-16T09:39:50;1.50;;;0.70;;
18883;SDS011;9574;47.282;9.640;2022-10-16T09:42:18;0.70;;;0.55;;
18883;SDS011;9574;47.282;9.640;2022-10-16T09:44:47;1.20;;;0.85;;
18883;SDS011;9574;47.282;9.640;2022-10-16T09:47:17;1.70;;;0.60;;
18883;SDS011;9574;47.282;9.640;2022-10-16T09:49:53;0.63;;;0.60;;
18883;SDS011;9574;47.282;9.640;2022-10-16T09:52:24;0.82;;;0.70;;
18883;SDS011;9574;47.282;9.640;2022-10-16T09:54:54;1.27;;;0.57;;
18883;SDS011;9574;47.282;9.640;2022-10-16T09:57:22;0.50;;;0.50;;
18883;SDS011;9574;47.282;9.640;2022-10-16T09:59:50;0.50;;;0.50;;
18883;SDS011;9574;47.282;9.640;2022-10-16T10:02:20;1.02;;;1.02;;
18883;SDS011;9574;47.282;9.640;2022-10-16T10:04:57;0.50;;;0.50;;
18883;SDS011;9574;47.282;9.640;2022-10-16T10:07:26;0.60;;;0.60;;
18883;SDS011;9574;47.282;9.640;2022-10-16T10:09:58;0.47;;;0.47;;
18883;SDS011;9574;47.282;9.640;2022-10-16T10:12:25;1.75;;;0.40;;
18883;SDS011;9574;47.282;9.640;2022-10-16T10:14:55;1.05;;;0.70;;
18883;SDS011;9574;47.282;9.640;2022-10-16T10:17:23;0.98;;;0.50;;
18883;SDS011;9574;47.282;9.640;2022-10-16T10:19:52;0.47;;;0.40;;
18883;SDS011;9574;47.282;9.640;2022-10-16T10:22:22;0.70;;;0.70;;
18883;SDS011;9574;47.282;9.640;2022-10-16T10:24:57;3.38;;;0.60;;
18883;SDS011;9574;47.282;9.640;2022-10-16T10:27:39;0.60;;;0.60;;
18883;SDS011;9574;47.282;9.640;2022-10-16T10:30:15;0.40;;;0.40;;
18883;SDS011;9574;47.282;9.640;2022-10-16T10:32:49;0.77;;;0.77;;
18883;SDS011;9574;47.282;9.640;2022-10-16T10:35:28;1.33;;;0.70;;
18883;SDS011;9574;47.282;9.640;2022-10-16T10:38:09;0.85;;;0.60;;
18883;SDS011;9574;47.282;9.640;2022-10-16T10:40:49;0.75;;;0.65;;
18883;SDS011;9574;47.282;9.640;2022-10-16T10:43:26;5.25;;;0.70;;
18883;SDS011;9574;47.282;9.640;2022-10-16T10:46:23;0.73;;;0.60;;
18883;SDS011;9574;47.282;9.640;2022-10-16T10:49:02;0.52;;;0.50;;
18883;SDS011;9574;47.282;9.640;2022-10-16T10:51:41;0.93;;;0.68;;
18883;SDS011;9574;47.282;9.640;2022-10-16T10:54:20;0.77;;;0.60;;
18883;SDS011;9574;47.282;9.640;2022-10-16T10:56:56;0.60;;;0.60;;
18883;SDS011;9574;47.282;9.640;2022-10-16T10:59:37;0.70;;;0.60;;
18883;SDS011;9574;47.282;9.640;2022-10-16T11:02:31;0.70;;;0.60;;
18883;SDS011;9574;47.282;9.640;2022-10-16T11:07:58;0.88;;;0.85;;
18883;SDS011;9574;47.282;9.640;2022-10-16T11:10:31;0.88;;;0.88;;
18883;SDS011;9574;47.282;9.640;2022-10-16T11:13:06;0.60;;;0.60;;
18883;SDS011;9574;47.282;9.640;2022-10-16T11:15:40;0.80;;;0.60;;
18883;SDS011;9574;47.282;9.640;2022-10-16T11:18:11;0.77;;;0.73;;
18883;SDS011;9574;47.282;9.640;2022-10-16T11:20:45;1.33;;;0.82;;
18883;SDS011;9574;47.282;9.640;2022-10-16T11:23:18;3.45;;;1.13;;
18883;SDS011;9574;47.282;9.640;2022-10-16T11:28:29;0.90;;;0.70;;
18883;SDS011;9574;47.282;9.640;2022-10-16T11:31:02;0.95;;;0.80;;
18883;SDS011;9574;47.282;9.640;2022-10-16T11:33:35;0.98;;;0.88;;
18883;SDS011;9574;47.282;9.640;2022-10-16T11:36:07;2.53;;;0.68;;
18883;SDS011;9574;47.282;9.640;2022-10-16T11:38:39;1.05;;;0.70;;
18883;SDS011;9574;47.282;9.640;2022-10-16T11:41:15;1.13;;;0.90;;
18883;SDS011;9574;47.282;9.640;2022-10-16T11:43:51;0.45;;;0.45;;
18883;SDS011;9574;47.282;9.640;2022-10-16T11:46:23;0.88;;;0.77;;
18883;SDS011;9574;47.282;9.640;2022-10-16T11:48:54;1.02;;;0.90;;
18883;SDS011;9574;47.282;9.640;2022-10-16T11:51:30;1.10;;;0.82;;
18883;SDS011;9574;47.282;9.640;2022-10-16T11:54:02;1.00;;;0.90;;
18883;SDS011;9574;47.282;9.640;2022-10-16T11:56:36;0.73;;;0.70;;
18883;SDS011;9574;47.282;9.640;2022-10-16T11:59:10;1.05;;;0.80;;
18883;SDS011;9574;47.282;9.640;2022-10-16T12:01:45;1.40;;;0.75;;
18883;SDS011;9574;47.282;9.640;2022-10-16T12:04:19;0.60;;;0.60;;
18883;SDS011;9574;47.282;9.640;2022-10-16T12:06:52;0.88;;;0.60;;
18883;SDS011;9574;47.282;9.640;2022-10-16T12:09:25;0.73;;;0.73;;
18883;SDS011;9574;47.282;9.640;2022-10-16T12:11:55;0.68;;;0.68;;
18883;SDS011;9574;47.282;9.640;2022-10-16T12:14:36;1.20;;;0.98;;
18883;SDS011;9574;47.282;9.640;2022-10-16T12:19:58;1.20;;;0.80;;
18883;SDS011;9574;47.282;9.640;2022-10-16T12:22:27;0.90;;;0.70;;
18883;SDS011;9574;47.282;9.640;2022-10-16T12:24:57;0.90;;;0.90;;
18883;SDS011;9574;47.282;9.640;2022-10-16T12:27:27;2.92;;;1.08;;
18883;SDS011;9574;47.282;9.640;2022-10-16T12:29:57;1.25;;;0.88;;
18883;SDS011;9574;47.282;9.640;2022-10-16T12:32:28;1.48;;;1.08;;
18883;SDS011;9574;47.282;9.640;2022-10-16T12:34:57;1.95;;;1.05;;
18883;SDS011;9574;47.282;9.640;2022-10-16T12:37:25;1.00;;;0.90;;
18883;SDS011;9574;47.282;9.640;2022-10-16T12:39:55;1.02;;;0.93;;
18883;SDS011;9574;47.282;9.640;2022-10-16T12:42:24;1.25;;;1.13;;
18883;SDS011;9574;47.282;9.640;2022-10-16T12:45:01;1.42;;;1.23;;
18883;SDS011;9574;47.282;9.640;2022-10-16T12:47:47;2.65;;;1.10;;
18883;SDS011;9574;47.282;9.640;2022-10-16T12:50:26;1.05;;;0.82;;
18883;SDS011;9574;47.282;9.640;2022-10-16T12:52:59;1.27;;;1.13;;
18883;SDS011;9574;47.282;9.640;2022-10-16T12:55:30;0.88;;;0.68;;
18883;SDS011;9574;47.282;9.640;2022-10-16T12:58:09;1.88;;;1.00;;
18883;SDS011;9574;47.282;9.640;2022-10-16T13:00:50;1.58;;;1.30;;
18883;SDS011;9574;47.282;9.640;2022-10-16T13:03:25;1.80;;;1.27;;
18883;SDS011;9574;47.282;9.640;2022-10-16T13:06:13;2.10;;;1.17;;
18883;SDS011;9574;47.282;9.640;2022-10-16T13:08:58;2.38;;;1.15;;
18883;SDS011;9574;47.282;9.640;2022-10-16T13:14:46;2.90;;;1.10;;
18883;SDS011;9574;47.282;9.640;2022-10-16T13:17:27;1.95;;;1.05;;
18883;SDS011;9574;47.282;9.640;2022-10-16T13:20:05;1.42;;;1.20;;
18883;SDS011;9574;47.282;9.640;2022-10-16T13:22:40;1.20;;;1.08;;
18883;SDS011;9574;47.282;9.640;2022-10-16T13:25:16;2.55;;;1.20;;
18883;SDS011;9574;47.282;9.640;2022-10-16T13:27:50;1.50;;;1.30;;
18883;SDS011;9574;47.282;9.640;2022-10-16T13:30:22;1.52;;;1.20;;
18883;SDS011;9574;47.282;9.640;2022-10-16T13:32:54;1.42;;;0.88;;
18883;SDS011;9574;47.282;9.640;2022-10-16T13:35:25;1.20;;;0.95;;
18883;SDS011;9574;47.282;9.640;2022-10-16T13:38:03;1.23;;;0.93;;
18883;SDS011;9574;47.282;9.640;2022-10-16T13:40:34;3.47;;;1.13;;
18883;SDS011;9574;47.282;9.640;2022-10-16T13:43:01;2.00;;;1.20;;
18883;SDS011;9574;47.282;9.640;2022-10-16T13:45:28;1.52;;;1.25;;
18883;SDS011;9574;47.282;9.640;2022-10-16T13:48:03;1.08;;;0.93;;
18883;SDS011;9574;47.282;9.640;2022-10-16T13:50:31;1.83;;;1.10;;
18883;SDS011;9574;47.282;9.640;2022-10-16T13:53:04;1.88;;;1.08;;
18883;SDS011;9574;47.282;9.640;2022-10-16T13:55:32;0.95;;;0.90;;
18883;SDS011;9574;47.282;9.640;2022-10-16T13:58:05;2.00;;;1.63;;
18883;SDS011;9574;47.282;9.640;2022-10-16T14:00:34;5.68;;;1.50;;
18883;SDS011;9574;47.282;9.640;2022-10-16T14:03:03;6.15;;;1.50;;
18883;SDS011;9574;47.282;9.640;2022-10-16T14:05:31;1.08;;;0.98;;
18883;SDS011;9574;47.282;9.640;2022-10-16T14:07:59;2.20;;;0.90;;
18883;SDS011;9574;47.282;9.640;2022-10-16T14:10:27;0.98;;;0.88;;
18883;SDS011;9574;47.282;9.640;2022-10-16T14:12:57;1.35;;;1.23;;
18883;SDS011;9574;47.282;9.640;2022-10-16T14:15:26;0.95;;;0.90;;
18883;SDS011;9574;47.282;9.640;2022-10-16T14:17:55;1.33;;;0.70;;
18883;SDS011;9574;47.282;9.640;2022-10-16T14:20:24;1.48;;;0.90;;
18883;SDS011;9574;47.282;9.640;2022-10-16T14:23:00;1.10;;;0.80;;
18883;SDS011;9574;47.282;9.640;2022-10-16T14:25:30;1.52;;;1.00;;
18883;SDS011;9574;47.282;9.640;2022-10-16T14:28:01;1.17;;;1.00;;
18883;SDS011;9574;47.282;9.640;2022-10-16T14:30:31;1.23;;;1.13;;
18883;SDS011;9574;47.282;9.640;2022-10-16T14:33:01;1.40;;;1.10;;
18883;SDS011;9574;47.282;9.640;2022-10-16T14:35:31;2.70;;;0.85;;
18883;SDS011;9574;47.282;9.640;2022-10-16T14:38:01;2.13;;;0.80;;
18883;SDS011;9574;47.282;9.640;2022-10-16T14:40:30;1.77;;;1.33;;
18883;SDS011;9574;47.282;9.640;2022-10-16T14:42:58;1.58;;;0.90;;
18883;SDS011;9574;47.282;9.640;2022-10-16T14:45:27;2.72;;;1.55;;
18883;SDS011;9574;47.282;9.640;2022-10-16T14:47:57;1.20;;;1.00;;
18883;SDS011;9574;47.282;9.640;2022-10-16T14:50:26;1.08;;;0.80;;
18883;SDS011;9574;47.282;9.640;2022-10-16T14:52:55;1.38;;;1.00;;
18883;SDS011;9574;47.282;9.640;2022-10-16T14:55:22;4.13;;;1.00;;
18883;SDS011;9574;47.282;9.640;2022-10-16T14:57:49;1.45;;;1.35;;
18883;SDS011;9574;47.282;9.640;2022-10-16T15:00:18;1.52;;;1.10;;
18883;SDS011;9574;47.282;9.640;2022-10-16T15:02:48;1.08;;;0.95;;
18883;SDS011;9574;47.282;9.640;2022-10-16T15:05:17;1.10;;;0.70;;
18883;SDS011;9574;47.282;9.640;2022-10-16T15:07:47;2.90;;;0.90;;
18883;SDS011;9574;47.282;9.640;2022-10-16T15:10:16;2.53;;;1.02;;
18883;SDS011;9574;47.282;9.640;2022-10-16T15:12:44;0.95;;;0.73;;
18883;SDS011;9574;47.282;9.640;2022-10-16T15:15:25;0.82;;;0.73;;
18883;SDS011;9574;47.282;9.640;2022-10-16T15:18:02;1.90;;;0.80;;
18883;SDS011;9574;47.282;9.640;2022-10-16T15:20:31;3.63;;;2.08;;
18883;SDS011;9574;47.282;9.640;2022-10-16T15:23:00;1.85;;;0.88;;
18883;SDS011;9574;47.282;9.640;2022-10-16T15:25:34;1.10;;;0.80;;
18883;SDS011;9574;47.282;9.640;2022-10-16T15:28:04;0.80;;;0.60;;
18883;SDS011;9574;47.282;9.640;2022-10-16T15:30:33;1.10;;;0.73;;